| Date | Time | Temp. (oF) | Dew Point (oF) | Rel. Hum. (%) | Press. (in.) | Wind Dir. | Wind Speed (mph) | Hourly Rainfall (in.) |
|
|---|---|---|---|---|---|---|---|---|---|
| 1 | 01/06 | 00:00 | 35 | 15 | 45 | 30.03 | NW | 1 | 0.00 |
| 2 | 01/05 | 23:00 | 36 | 15 | 43 | 30.04 | NW | 3 | 0.00 |
| 3 | 01/05 | 22:00 | 38 | 16 | 41 | 30.03 | NW | 4 | 0.00 |
| 4 | 01/05 | 21:00 | 38 | 16 | 42 | 30.04 | NNW | 6 | 0.00 |
| 5 | 01/05 | 20:00 | 39 | 19 | 45 | 30.03 | NNW | 4 | 0.00 |
| 6 | 01/05 | 19:00 | 39 | 20 | 48 | 30.01 | NNW | 4 | 0.00 |
| 7 | 01/05 | 18:00 | 39 | 22 | 51 | 30.00 | WNW | 4 | 0.00 |
| 8 | 01/05 | 17:00 | 40 | 26 | 58 | 29.99 | WNW | 4 | 0.00 |
| 9 | 01/05 | 16:00 | 42 | 27 | 56 | 29.96 | NNW | 6 | 0.00 |
| 10 | 01/05 | 15:00 | 43 | 27 | 55 | 29.97 | NNW | 10 | 0.00 |
| 11 | 01/05 | 14:00 | 45 | 29 | 54 | 29.96 | WNW | 8 | 0.00 |
| 12 | 01/05 | 13:00 | 45 | 30 | 56 | 29.98 | WNW | 4 | 0.00 |
| 13 | 01/05 | 12:00 | 44 | 31 | 61 | 29.99 | NW | 3 | 0.00 |
| 14 | miss | miss | miss | miss | miss | miss | miss | miss | |
| 15 | 01/05 | 10:00 | 42 | 32 | 69 | 30.03 | NW | 18 | 0.00 |
| 16 | miss | miss | miss | miss | miss | miss | miss | miss | |
| 17 | 01/05 | 09:47 | 42 | 34 | 74 | 30.02 | WNW | 6 | 0.00 |
| 18 | miss | miss | miss | miss | miss | miss | miss | miss | |
| 19 | 01/05 | 09:45 | 42 | 34 | 74 | 30.02 | NW | 8 | 0.00 |
| 20 | miss | miss | miss | miss | miss | miss | miss | miss | |
| 21 | 01/05 | 09:43 | 42 | 34 | 74 | 30.02 | NW | 9 | 0.00 |
| 22 | miss | miss | miss | miss | miss | miss | miss | miss | |
| 23 | 01/05 | 09:41 | 42 | 34 | 75 | 30.02 | NW | 10 | 0.00 |
| 24 | miss | miss | miss | miss | miss | miss | miss | miss | |
| 25 | 01/05 | 09:39 | 42 | 34 | 75 | 30.02 | NNW | 4 | 0.00 |
| 26 | miss | miss | miss | miss | miss | miss | miss | miss | |
| 27 | 01/05 | 09:39 | 42 | 34 | 75 | 30.02 | NNW | 4 | 0.00 |
| 28 | miss | miss | miss | miss | miss | miss | miss | miss | |
| 29 | 01/05 | 09:39 | 42 | 34 | 75 | 30.02 | NNW | 4 | 0.00 |
| 30 | miss | miss | miss | miss | miss | miss | miss | miss | |
| 31 | 01/05 | 09:39 | 42 | 34 | 75 | 30.02 | NNW | 4 | 0.00 |
| 32 | miss | miss | miss | miss | miss | miss | miss | miss | |
| 33 | 01/05 | 09:39 | 42 | 34 | 75 | 30.02 | NNW | 4 | 0.00 |
| 34 | miss | miss | miss | miss | miss | miss | miss | miss | |
| 35 | 01/05 | 09:39 | 42 | 34 | 75 | 30.02 | NNW | 4 | 0.00 |
| 36 | miss | miss | miss | miss | miss | miss | miss | miss | |
| 37 | 01/05 | 09:39 | 42 | 34 | 75 | 30.02 | NNW | 4 | 0.00 |
| 38 | miss | miss | miss | miss | miss | miss | miss | miss | |
| 39 | 01/05 | 09:39 | 42 | 34 | 75 | 30.02 | NNW | 4 | 0.00 |
| 40 | 01/05 | 09:00 | 41 | 33 | 73 | 30.01 | WNW | 6 | 0.00 |
| 41 | 01/05 | 08:00 | 39 | 30 | 71 | 29.99 | NW | 3 | 0.00 |
| 42 | 01/05 | 07:00 | 37 | 25 | 63 | 29.98 | NW | 2 | 0.00 |
| 43 | 01/05 | 06:00 | 38 | 25 | 61 | 29.96 | WNW | 3 | 0.00 |
| 44 | 01/05 | 05:00 | 39 | 26 | 61 | 29.96 | WNW | 5 | 0.00 |
| 45 | 01/05 | 04:00 | 39 | 26 | 60 | 29.94 | NW | 0 | 0.00 |
| 46 | miss | miss | miss | miss | miss | miss | miss | miss | |
| 47 | 01/05 | 03:00 | 39 | 25 | 59 | 29.97 | NW | 3 | 0.00 |
| 48 | 01/05 | 02:59 | 39 | 25 | 59 | 29.96 | NW | 2 | 0.00 |
| 49 | miss | miss | miss | miss | miss | miss | miss | miss | |
| 50 | 01/05 | 02:58 | 39 | 25 | 59 | 29.96 | N | 1 | 0.00 |
| 51 | miss | miss | miss | miss | miss | miss | miss | miss | |
| 52 | 01/05 | 02:58 | 39 | 25 | 59 | 29.96 | N | 1 | 0.00 |
| 53 | miss | miss | miss | miss | miss | miss | miss | miss | |
| 54 | 01/05 | 02:58 | 39 | 25 | 59 | 29.96 | N | 1 | 0.00 |
| 55 | miss | miss | miss | miss | miss | miss | miss | miss | |
| 56 | 01/05 | 02:58 | 39 | 25 | 59 | 29.96 | N | 1 | 0.00 |
| 57 | miss | miss | miss | miss | miss | miss | miss | miss | |
| 58 | 01/05 | 02:58 | 39 | 25 | 59 | 29.96 | N | 1 | 0.00 |
| 59 | miss | miss | miss | miss | miss | miss | miss | miss | |
| 60 | 01/05 | 02:58 | 39 | 25 | 59 | 29.96 | N | 1 | 0.00 |
| 61 | miss | miss | miss | miss | miss | miss | miss | miss | |
| 62 | 01/05 | 02:58 | 39 | 25 | 59 | 29.96 | N | 1 | 0.00 |
| 63 | miss | miss | miss | miss | miss | miss | miss | miss | |
| 64 | 01/05 | 02:58 | 39 | 25 | 59 | 29.96 | N | 1 | 0.00 |
| 65 | miss | miss | miss | miss | miss | miss | miss | miss | |
| 66 | 01/05 | 02:58 | 39 | 25 | 59 | 29.96 | N | 1 | 0.00 |
| 67 | miss | miss | miss | miss | miss | miss | miss | miss | |
| 68 | 01/05 | 02:58 | 39 | 25 | 59 | 29.96 | N | 1 | 0.00 |
| 69 | miss | miss | miss | miss | miss | miss | miss | miss | |
| 70 | 01/05 | 02:58 | 39 | 25 | 59 | 29.96 | N | 1 | 0.00 |
| 71 | 01/05 | 02:00 | 39 | 25 | 58 | 29.96 | SE | 0 | 0.00 |
| 72 | 01/05 | 01:00 | 39 | 23 | 53 | 29.96 | S | 2 | 0.00 |
| 73 | 01/05 | 00:00 | 39 | 23 | 53 | 29.98 | SW | 4 | 0.00 |
| 74 | 01/04 | 23:00 | 39 | 22 | 52 | 30.00 | SW | 1 | 0.00 |
| 75 | 01/04 | 22:00 | 39 | 22 | 52 | 30.01 | S | 0 | 0.00 |
| 76 | miss | miss | miss | miss | miss | miss | miss | miss | |
| 77 | 01/04 | 21:22 | 39 | 21 | 49 | 30.03 | SSW | 1 | 0.00 |
| 78 | miss | miss | miss | miss | miss | miss | miss | miss | |
| 79 | 01/04 | 21:20 | 39 | 21 | 49 | 30.03 | S | 2 | 0.00 |
| 80 | miss | miss | miss | miss | miss | miss | miss | miss | |
| 81 | 01/04 | 21:18 | 39 | 21 | 50 | 30.02 | SSE | 2 | 0.00 |
| 82 | miss | miss | miss | miss | miss | miss | miss | miss | |
| 83 | 01/04 | 21:16 | 39 | 21 | 50 | 30.03 | SSW | 1 | 0.00 |
| 84 | miss | miss | miss | miss | miss | miss | miss | miss | |
| 85 | 01/04 | 21:14 | 39 | 21 | 49 | 30.03 | S | 4 | 0.00 |
| 86 | miss | miss | miss | miss | miss | miss | miss | miss | |
| 87 | 01/04 | 21:12 | 39 | 21 | 49 | 30.03 | S | 2 | 0.00 |
| 88 | miss | miss | miss | miss | miss | miss | miss | miss | |
| 89 | 01/04 | 21:10 | 39 | 21 | 49 | 30.03 | S | 4 | 0.00 |
| 90 | miss | miss | miss | miss | miss | miss | miss | miss | |
| 91 | 01/04 | 21:08 | 38 | 20 | 49 | 30.03 | SSW | 1 | 0.00 |
| 92 | miss | miss | miss | miss | miss | miss | miss | miss | |
| 93 | 01/04 | 21:06 | 38 | 20 | 49 | 30.03 | SSW | 2 | 0.00 |
| 94 | miss | miss | miss | miss | miss | miss | miss | miss | |
| 95 | 01/04 | 21:04 | 38 | 20 | 49 | 30.03 | S | 3 | 0.00 |
| 96 | miss | miss | miss | miss | miss | miss | miss | miss | |
| 97 | 01/04 | 21:02 | 38 | 20 | 49 | 30.03 | S | 4 | 0.00 |
| 98 | miss | miss | miss | miss | miss | miss | miss | miss | |
| 99 | 01/04 | 21:02 | 38 | 20 | 49 | 30.03 | S | 4 | 0.00 |
| 100 | 01/04 | 21:00 | 38 | 19 | 48 | 30.03 | S | 3 | 0.00 |
| 101 | 01/04 | 20:00 | 38 | 19 | 47 | 30.03 | SE | 1 | 0.00 |
| 102 | 01/04 | 19:00 | 39 | 18 | 44 | 30.05 | ENE | 0 | 0.00 |
| 103 | 01/04 | 18:00 | 39 | 16 | 40 | 30.06 | SW | 0 | 0.00 |
| 104 | 01/04 | 17:00 | 39 | 16 | 39 | 30.05 | SW | 2 | 0.00 |
| 105 | 01/04 | 16:00 | 40 | 16 | 38 | 30.06 | NNW | 2 | 0.00 |
| 106 | 01/04 | 15:00 | 40 | 15 | 37 | 30.06 | SW | 3 | 0.00 |
| 107 | miss | miss | miss | miss | miss | miss | miss | miss | |
| 108 | 01/04 | 14:35 | 40 | 15 | 37 | 30.06 | SW | 3 | 0.00 |
| 109 | miss | miss | miss | miss | miss | miss | miss | miss | |
| 110 | 01/04 | 14:33 | 40 | 15 | 37 | 30.06 | WSW | 3 | 0.00 |
| 111 | miss | miss | miss | miss | miss | miss | miss | miss | |
| 112 | 01/04 | 14:31 | 40 | 15 | 37 | 30.06 | W | 1 | 0.00 |
| 113 | miss | miss | miss | miss | miss | miss | miss | miss | |
| 114 | 01/04 | 14:29 | 40 | 15 | 37 | 30.06 | WSW | 2 | 0.00 |
| 115 | miss | miss | miss | miss | miss | miss | miss | miss | |
| 116 | 01/04 | 14:27 | 40 | 15 | 37 | 30.05 | WSW | 0 | 0.00 |
| 117 | miss | miss | miss | miss | miss | miss | miss | miss | |
| 118 | 01/04 | 14:25 | 40 | 15 | 37 | 30.05 | WSW | 0 | 0.00 |
| 119 | miss | miss | miss | miss | miss | miss | miss | miss | |
| 120 | 01/04 | 14:23 | 40 | 15 | 37 | 30.05 | W | 0 | 0.00 |
| 121 | miss | miss | miss | miss | miss | miss | miss | miss | |
| 122 | 01/04 | 14:22 | 40 | 15 | 37 | 30.05 | W | 1 | 0.00 |
| 123 | miss | miss | miss | miss | miss | miss | miss | miss | |
| 124 | 01/04 | 14:22 | 40 | 15 | 37 | 30.05 | W | 1 | 0.00 |
| 125 | miss | miss | miss | miss | miss | miss | miss | miss | |
| 126 | 01/04 | 14:22 | 40 | 15 | 37 | 30.05 | W | 1 | 0.00 |
| 127 | miss | miss | miss | miss | miss | miss | miss | miss | |
| 128 | 01/04 | 14:22 | 40 | 15 | 37 | 30.05 | W | 1 | 0.00 |
| 129 | miss | miss | miss | miss | miss | miss | miss | miss | |
| 130 | 01/04 | 14:22 | 40 | 15 | 37 | 30.05 | W | 1 | 0.00 |
| 131 | 01/04 | 14:00 | 39 | 14 | 37 | 30.06 | SW | 1 | 0.00 |
| 132 | 01/04 | 13:00 | 38 | 15 | 39 | 30.09 | SW | 3 | 0.00 |
| 133 | miss | miss | miss | miss | miss | miss | miss | miss | |
| 134 | 01/04 | 12:31 | 38 | 16 | 42 | 30.10 | WNW | 2 | 0.00 |
| 135 | miss | miss | miss | miss | miss | miss | miss | miss | |
| 136 | 01/04 | 12:29 | 38 | 16 | 42 | 30.10 | W | 2 | 0.00 |
| 137 | miss | miss | miss | miss | miss | miss | miss | miss | |
| 138 | 01/04 | 12:27 | 38 | 16 | 42 | 30.10 | NW | 4 | 0.00 |
| 139 | miss | miss | miss | miss | miss | miss | miss | miss | |
| 140 | 01/04 | 12:25 | 38 | 16 | 42 | 30.11 | WSW | 5 | 0.00 |
| 141 | miss | miss | miss | miss | miss | miss | miss | miss | |
| 142 | 01/04 | 12:23 | 38 | 17 | 43 | 30.11 | NW | 4 | 0.00 |
| 143 | miss | miss | miss | miss | miss | miss | miss | miss | |
| 144 | 01/04 | 12:21 | 38 | 17 | 43 | 30.11 | W | 5 | 0.00 |
| 145 | miss | miss | miss | miss | miss | miss | miss | miss | |
| 146 | 01/04 | 12:20 | 38 | 17 | 44 | 30.11 | NW | 4 | 0.00 |
| 147 | miss | miss | miss | miss | miss | miss | miss | miss | |
| 148 | 01/04 | 12:20 | 38 | 17 | 44 | 30.11 | NW | 4 | 0.00 |
| 149 | miss | miss | miss | miss | miss | miss | miss | miss | |
| 150 | 01/04 | 12:20 | 38 | 17 | 44 | 30.11 | NW | 4 | 0.00 |
| 151 | miss | miss | miss | miss | miss | miss | miss | miss | |
| 152 | 01/04 | 12:20 | 38 | 17 | 44 | 30.11 | NW | 4 | 0.00 |
| 153 | miss | miss | miss | miss | miss | miss | miss | miss | |
| 154 | 01/04 | 12:20 | 38 | 17 | 44 | 30.11 | NW | 4 | 0.00 |
| 155 | miss | miss | miss | miss | miss | miss | miss | miss | |
| 156 | 01/04 | 12:20 | 38 | 17 | 44 | 30.11 | NW | 4 | 0.00 |
| 157 | 01/04 | 12:00 | 38 | 17 | 44 | 30.12 | NNW | 2 | 0.00 |
| 158 | 01/04 | 11:00 | 36 | 20 | 54 | 30.15 | WSW | 4 | 0.00 |
| 159 | 01/04 | 10:00 | 31 | 16 | 55 | 30.18 | WNW | 5 | 0.00 |